sensor_id;sensor_type;location;lat;lon;timestamp;P1;durP1;ratioP1;P2;durP2;ratioP2
57249;SDS011;43102;52.014;-0.680;2023-07-20T00:00:00;2.90;;;2.40;;
57249;SDS011;43102;52.014;-0.680;2023-07-20T00:01:00;2.90;;;2.40;;
57249;SDS011;43102;52.014;-0.680;2023-07-20T00:02:00;2.90;;;2.40;;
57249;SDS011;43102;52.014;-0.680;2023-07-20T00:03:19;3.50;;;2.10;;
57249;SDS011;43102;52.014;-0.680;2023-07-20T00:04:01;3.50;;;2.10;;
57249;SDS011;43102;52.014;-0.680;2023-07-20T00:05:00;3.50;;;2.10;;
57249;SDS011;43102;52.014;-0.680;2023-07-20T00:06:00;3.50;;;2.10;;
57249;SDS011;43102;52.014;-0.680;2023-07-20T00:07:00;3.50;;;2.10;;
57249;SDS011;43102;52.014;-0.680;2023-07-20T00:08:00;3.50;;;2.10;;
57249;SDS011;43102;52.014;-0.680;2023-07-20T00:09:00;3.50;;;2.10;;
57249;SDS011;43102;52.014;-0.680;2023-07-20T00:10:00;3.50;;;2.10;;
57249;SDS011;43102;52.014;-0.680;2023-07-20T00:11:00;3.50;;;2.10;;
57249;SDS011;43102;52.014;-0.680;2023-07-20T00:12:00;3.50;;;2.10;;
57249;SDS011;43102;52.014;-0.680;2023-07-20T00:13:00;3.50;;;2.10;;
57249;SDS011;43102;52.014;-0.680;2023-07-20T00:14:00;3.50;;;2.10;;
57249;SDS011;43102;52.014;-0.680;2023-07-20T00:15:00;3.50;;;2.10;;
57249;SDS011;43102;52.014;-0.680;2023-07-20T00:16:00;3.50;;;2.10;;
57249;SDS011;43102;52.014;-0.680;2023-07-20T00:17:02;3.50;;;2.10;;
57249;SDS011;43102;52.014;-0.680;2023-07-20T00:18:01;3.50;;;2.10;;
57249;SDS011;43102;52.014;-0.680;2023-07-20T00:19:00;3.50;;;2.10;;
57249;SDS011;43102;52.014;-0.680;2023-07-20T00:20:00;3.50;;;2.10;;
57249;SDS011;43102;52.014;-0.680;2023-07-20T00:21:01;3.50;;;2.10;;
57249;SDS011;43102;52.014;-0.680;2023-07-20T00:22:01;3.50;;;2.10;;
57249;SDS011;43102;52.014;-0.680;2023-07-20T00:23:00;3.50;;;2.10;;
57249;SDS011;43102;52.014;-0.680;2023-07-20T00:24:00;3.50;;;2.10;;
57249;SDS011;43102;52.014;-0.680;2023-07-20T00:25:00;3.50;;;2.10;;
57249;SDS011;43102;52.014;-0.680;2023-07-20T00:26:00;3.50;;;2.10;;
57249;SDS011;43102;52.014;-0.680;2023-07-20T00:27:00;3.50;;;2.10;;
57249;SDS011;43102;52.014;-0.680;2023-07-20T00:28:01;3.50;;;2.10;;
57249;SDS011;43102;52.014;-0.680;2023-07-20T00:29:00;3.50;;;2.10;;
57249;SDS011;43102;52.014;-0.680;2023-07-20T00:30:00;3.50;;;2.10;;
57249;SDS011;43102;52.014;-0.680;2023-07-20T00:31:00;3.50;;;2.10;;
57249;SDS011;43102;52.014;-0.680;2023-07-20T00:32:00;3.50;;;2.10;;
57249;SDS011;43102;52.014;-0.680;2023-07-20T00:33:00;2.90;;;2.30;;
57249;SDS011;43102;52.014;-0.680;2023-07-20T00:34:00;2.90;;;2.30;;
57249;SDS011;43102;52.014;-0.680;2023-07-20T00:35:00;2.90;;;2.30;;
57249;SDS011;43102;52.014;-0.680;2023-07-20T00:36:00;2.90;;;2.30;;
57249;SDS011;43102;52.014;-0.680;2023-07-20T00:37:00;2.90;;;2.30;;
57249;SDS011;43102;52.014;-0.680;2023-07-20T00:38:00;2.90;;;2.30;;
57249;SDS011;43102;52.014;-0.680;2023-07-20T00:39:00;2.90;;;2.30;;
57249;SDS011;43102;52.014;-0.680;2023-07-20T00:40:00;2.90;;;2.30;;
57249;SDS011;43102;52.014;-0.680;2023-07-20T00:41:00;2.90;;;2.30;;
57249;SDS011;43102;52.014;-0.680;2023-07-20T00:42:00;2.90;;;2.30;;
57249;SDS011;43102;52.014;-0.680;2023-07-20T00:43:00;2.90;;;2.30;;
57249;SDS011;43102;52.014;-0.680;2023-07-20T00:44:00;2.90;;;2.30;;
57249;SDS011;43102;52.014;-0.680;2023-07-20T00:45:00;2.90;;;2.30;;
57249;SDS011;43102;52.014;-0.680;2023-07-20T00:46:02;2.90;;;2.30;;
57249;SDS011;43102;52.014;-0.680;2023-07-20T00:47:00;2.90;;;2.30;;
57249;SDS011;43102;52.014;-0.680;2023-07-20T00:48:02;2.90;;;2.30;;
57249;SDS011;43102;52.014;-0.680;2023-07-20T00:49:01;2.90;;;2.30;;
57249;SDS011;43102;52.014;-0.680;2023-07-20T00:50:01;2.90;;;2.30;;
57249;SDS011;43102;52.014;-0.680;2023-07-20T00:51:01;2.90;;;2.30;;
57249;SDS011;43102;52.014;-0.680;2023-07-20T00:52:01;2.90;;;2.30;;
57249;SDS011;43102;52.014;-0.680;2023-07-20T00:53:05;2.90;;;2.30;;
57249;SDS011;43102;52.014;-0.680;2023-07-20T00:54:00;2.90;;;2.30;;
57249;SDS011;43102;52.014;-0.680;2023-07-20T00:55:00;2.90;;;2.30;;
57249;SDS011;43102;52.014;-0.680;2023-07-20T00:56:00;2.90;;;2.30;;
57249;SDS011;43102;52.014;-0.680;2023-07-20T00:57:01;2.90;;;2.30;;
57249;SDS011;43102;52.014;-0.680;2023-07-20T00:58:00;2.90;;;2.30;;
57249;SDS011;43102;52.014;-0.680;2023-07-20T00:59:00;2.90;;;2.30;;
57249;SDS011;43102;52.014;-0.680;2023-07-20T01:00:02;2.90;;;2.30;;
57249;SDS011;43102;52.014;-0.680;2023-07-20T01:01:00;2.90;;;2.30;;
57249;SDS011;43102;52.014;-0.680;2023-07-20T01:02:01;2.90;;;2.30;;
57249;SDS011;43102;52.014;-0.680;2023-07-20T01:03:00;3.30;;;2.60;;
57249;SDS011;43102;52.014;-0.680;2023-07-20T01:04:00;3.30;;;2.60;;
57249;SDS011;43102;52.014;-0.680;2023-07-20T01:05:01;3.30;;;2.60;;
57249;SDS011;43102;52.014;-0.680;2023-07-20T01:06:09;3.30;;;2.60;;
57249;SDS011;43102;52.014;-0.680;2023-07-20T01:07:15;3.30;;;2.60;;
57249;SDS011;43102;52.014;-0.680;2023-07-20T01:08:11;3.30;;;2.60;;
57249;SDS011;43102;52.014;-0.680;2023-07-20T01:09:14;3.30;;;2.60;;
57249;SDS011;43102;52.014;-0.680;2023-07-20T01:10:06;3.30;;;2.60;;
57249;SDS011;43102;52.014;-0.680;2023-07-20T01:11:17;3.30;;;2.60;;
57249;SDS011;43102;52.014;-0.680;2023-07-20T01:13:01;3.30;;;2.60;;
57249;SDS011;43102;52.014;-0.680;2023-07-20T01:14:00;3.30;;;2.60;;
57249;SDS011;43102;52.014;-0.680;2023-07-20T01:15:00;3.30;;;2.60;;
57249;SDS011;43102;52.014;-0.680;2023-07-20T01:16:01;3.30;;;2.60;;
57249;SDS011;43102;52.014;-0.680;2023-07-20T01:17:02;3.30;;;2.60;;
57249;SDS011;43102;52.014;-0.680;2023-07-20T01:18:04;3.30;;;2.60;;
57249;SDS011;43102;52.014;-0.680;2023-07-20T01:19:00;3.30;;;2.60;;
57249;SDS011;43102;52.014;-0.680;2023-07-20T01:20:00;3.30;;;2.60;;
57249;SDS011;43102;52.014;-0.680;2023-07-20T01:21:06;3.30;;;2.60;;
57249;SDS011;43102;52.014;-0.680;2023-07-20T01:22:09;3.30;;;2.60;;
57249;SDS011;43102;52.014;-0.680;2023-07-20T01:23:35;3.30;;;2.60;;
57249;SDS011;43102;52.014;-0.680;2023-07-20T01:24:11;3.30;;;2.60;;
57249;SDS011;43102;52.014;-0.680;2023-07-20T01:25:08;3.30;;;2.60;;
57249;SDS011;43102;52.014;-0.680;2023-07-20T01:26:12;3.30;;;2.60;;
57249;SDS011;43102;52.014;-0.680;2023-07-20T01:29:35;3.30;;;2.60;;
57249;SDS011;43102;52.014;-0.680;2023-07-20T01:31:32;3.30;;;2.60;;
57249;SDS011;43102;52.014;-0.680;2023-07-20T01:32:03;3.30;;;2.60;;
57249;SDS011;43102;52.014;-0.680;2023-07-20T01:33:01;4.00;;;2.40;;
57249;SDS011;43102;52.014;-0.680;2023-07-20T01:34:02;4.00;;;2.40;;
57249;SDS011;43102;52.014;-0.680;2023-07-20T01:35:01;4.00;;;2.40;;
57249;SDS011;43102;52.014;-0.680;2023-07-20T01:36:02;4.00;;;2.40;;
57249;SDS011;43102;52.014;-0.680;2023-07-20T01:37:01;4.00;;;2.40;;
57249;SDS011;43102;52.014;-0.680;2023-07-20T01:38:01;4.00;;;2.40;;
57249;SDS011;43102;52.014;-0.680;2023-07-20T01:39:00;4.00;;;2.40;;
57249;SDS011;43102;52.014;-0.680;2023-07-20T01:40:01;4.00;;;2.40;;
57249;SDS011;43102;52.014;-0.680;2023-07-20T01:41:01;4.00;;;2.40;;
57249;SDS011;43102;52.014;-0.680;2023-07-20T01:42:01;4.00;;;2.40;;
57249;SDS011;43102;52.014;-0.680;2023-07-20T01:43:02;4.00;;;2.40;;
57249;SDS011;43102;52.014;-0.680;2023-07-20T01:44:00;4.00;;;2.40;;
57249;SDS011;43102;52.014;-0.680;2023-07-20T01:45:00;4.00;;;2.40;;
57249;SDS011;43102;52.014;-0.680;2023-07-20T01:46:00;4.00;;;2.40;;
57249;SDS011;43102;52.014;-0.680;2023-07-20T01:47:00;4.00;;;2.40;;
57249;SDS011;43102;52.014;-0.680;2023-07-20T01:48:00;4.00;;;2.40;;
57249;SDS011;43102;52.014;-0.680;2023-07-20T01:49:00;4.00;;;2.40;;
57249;SDS011;43102;52.014;-0.680;2023-07-20T01:50:00;4.00;;;2.40;;
57249;SDS011;43102;52.014;-0.680;2023-07-20T01:51:00;4.00;;;2.40;;
57249;SDS011;43102;52.014;-0.680;2023-07-20T01:52:00;4.00;;;2.40;;
57249;SDS011;43102;52.014;-0.680;2023-07-20T01:53:00;4.00;;;2.40;;
57249;SDS011;43102;52.014;-0.680;2023-07-20T01:54:00;4.00;;;2.40;;
57249;SDS011;43102;52.014;-0.680;2023-07-20T01:55:01;4.00;;;2.40;;
57249;SDS011;43102;52.014;-0.680;2023-07-20T01:56:00;4.00;;;2.40;;
57249;SDS011;43102;52.014;-0.680;2023-07-20T01:57:00;4.00;;;2.40;;
57249;SDS011;43102;52.014;-0.680;2023-07-20T01:58:01;4.00;;;2.40;;
57249;SDS011;43102;52.014;-0.680;2023-07-20T01:59:00;4.00;;;2.40;;
57249;SDS011;43102;52.014;-0.680;2023-07-20T02:00:00;4.00;;;2.40;;
57249;SDS011;43102;52.014;-0.680;2023-07-20T02:01:01;4.00;;;2.40;;
57249;SDS011;43102;52.014;-0.680;2023-07-20T02:02:00;4.00;;;2.40;;
57249;SDS011;43102;52.014;-0.680;2023-07-20T02:03:00;3.10;;;2.70;;
57249;SDS011;43102;52.014;-0.680;2023-07-20T02:04:00;3.10;;;2.70;;
57249;SDS011;43102;52.014;-0.680;2023-07-20T02:05:00;3.10;;;2.70;;
57249;SDS011;43102;52.014;-0.680;2023-07-20T02:06:00;3.10;;;2.70;;
57249;SDS011;43102;52.014;-0.680;2023-07-20T02:07:00;3.10;;;2.70;;
57249;SDS011;43102;52.014;-0.680;2023-07-20T02:08:00;3.10;;;2.70;;
57249;SDS011;43102;52.014;-0.680;2023-07-20T02:09:00;3.10;;;2.70;;
57249;SDS011;43102;52.014;-0.680;2023-07-20T02:10:00;3.10;;;2.70;;
57249;SDS011;43102;52.014;-0.680;2023-07-20T02:11:00;3.10;;;2.70;;
57249;SDS011;43102;52.014;-0.680;2023-07-20T02:12:00;3.10;;;2.70;;
57249;SDS011;43102;52.014;-0.680;2023-07-20T02:13:00;3.10;;;2.70;;
57249;SDS011;43102;52.014;-0.680;2023-07-20T02:14:00;3.10;;;2.70;;
57249;SDS011;43102;52.014;-0.680;2023-07-20T02:15:01;3.10;;;2.70;;
57249;SDS011;43102;52.014;-0.680;2023-07-20T02:16:00;3.10;;;2.70;;
57249;SDS011;43102;52.014;-0.680;2023-07-20T02:17:01;3.10;;;2.70;;
57249;SDS011;43102;52.014;-0.680;2023-07-20T02:18:01;3.10;;;2.70;;
57249;SDS011;43102;52.014;-0.680;2023-07-20T02:19:00;3.10;;;2.70;;
57249;SDS011;43102;52.014;-0.680;2023-07-20T02:20:00;3.10;;;2.70;;
57249;SDS011;43102;52.014;-0.680;2023-07-20T02:21:00;3.10;;;2.70;;
57249;SDS011;43102;52.014;-0.680;2023-07-20T02:22:00;3.10;;;2.70;;
57249;SDS011;43102;52.014;-0.680;2023-07-20T02:23:00;3.10;;;2.70;;
57249;SDS011;43102;52.014;-0.680;2023-07-20T02:24:00;3.10;;;2.70;;
57249;SDS011;43102;52.014;-0.680;2023-07-20T02:25:00;3.10;;;2.70;;
57249;SDS011;43102;52.014;-0.680;2023-07-20T02:26:00;3.10;;;2.70;;
57249;SDS011;43102;52.014;-0.680;2023-07-20T02:27:00;3.10;;;2.70;;
57249;SDS011;43102;52.014;-0.680;2023-07-20T02:28:00;3.10;;;2.70;;
57249;SDS011;43102;52.014;-0.680;2023-07-20T02:29:00;3.10;;;2.70;;
57249;SDS011;43102;52.014;-0.680;2023-07-20T02:30:01;3.10;;;2.70;;
57249;SDS011;43102;52.014;-0.680;2023-07-20T02:31:00;3.10;;;2.70;;
57249;SDS011;43102;52.014;-0.680;2023-07-20T02:32:00;3.10;;;2.70;;
57249;SDS011;43102;52.014;-0.680;2023-07-20T02:33:00;3.50;;;2.70;;
57249;SDS011;43102;52.014;-0.680;2023-07-20T02:34:00;3.50;;;2.70;;
57249;SDS011;43102;52.014;-0.680;2023-07-20T02:35:00;3.50;;;2.70;;
57249;SDS011;43102;52.014;-0.680;2023-07-20T02:36:00;3.50;;;2.70;;
57249;SDS011;43102;52.014;-0.680;2023-07-20T02:37:00;3.50;;;2.70;;
57249;SDS011;43102;52.014;-0.680;2023-07-20T02:38:00;3.50;;;2.70;;
57249;SDS011;43102;52.014;-0.680;2023-07-20T02:39:03;3.50;;;2.70;;
57249;SDS011;43102;52.014;-0.680;2023-07-20T02:40:01;3.50;;;2.70;;
57249;SDS011;43102;52.014;-0.680;2023-07-20T02:41:00;3.50;;;2.70;;
57249;SDS011;43102;52.014;-0.680;2023-07-20T02:42:00;3.50;;;2.70;;
57249;SDS011;43102;52.014;-0.680;2023-07-20T02:43:01;3.50;;;2.70;;
57249;SDS011;43102;52.014;-0.680;2023-07-20T02:44:01;3.50;;;2.70;;
57249;SDS011;43102;52.014;-0.680;2023-07-20T02:45:02;3.50;;;2.70;;
57249;SDS011;43102;52.014;-0.680;2023-07-20T02:46:00;3.50;;;2.70;;
57249;SDS011;43102;52.014;-0.680;2023-07-20T02:47:00;3.50;;;2.70;;
57249;SDS011;43102;52.014;-0.680;2023-07-20T02:48:00;3.50;;;2.70;;
57249;SDS011;43102;52.014;-0.680;2023-07-20T02:49:01;3.50;;;2.70;;
57249;SDS011;43102;52.014;-0.680;2023-07-20T02:50:00;3.50;;;2.70;;
57249;SDS011;43102;52.014;-0.680;2023-07-20T02:51:00;3.50;;;2.70;;
57249;SDS011;43102;52.014;-0.680;2023-07-20T02:52:00;3.50;;;2.70;;
57249;SDS011;43102;52.014;-0.680;2023-07-20T02:53:00;3.50;;;2.70;;
57249;SDS011;43102;52.014;-0.680;2023-07-20T02:54:01;3.50;;;2.70;;
57249;SDS011;43102;52.014;-0.680;2023-07-20T02:55:00;3.50;;;2.70;;
57249;SDS011;43102;52.014;-0.680;2023-07-20T02:56:00;3.50;;;2.70;;
57249;SDS011;43102;52.014;-0.680;2023-07-20T02:57:01;3.50;;;2.70;;
57249;SDS011;43102;52.014;-0.680;2023-07-20T02:58:00;3.50;;;2.70;;
57249;SDS011;43102;52.014;-0.680;2023-07-20T02:59:01;3.50;;;2.70;;
57249;SDS011;43102;52.014;-0.680;2023-07-20T03:00:01;3.50;;;2.70;;
57249;SDS011;43102;52.014;-0.680;2023-07-20T03:01:00;3.50;;;2.70;;
57249;SDS011;43102;52.014;-0.680;2023-07-20T03:02:00;3.50;;;2.70;;
57249;SDS011;43102;52.014;-0.680;2023-07-20T03:03:00;4.20;;;3.10;;
57249;SDS011;43102;52.014;-0.680;2023-07-20T03:04:00;4.20;;;3.10;;
57249;SDS011;43102;52.014;-0.680;2023-07-20T03:05:02;4.20;;;3.10;;
57249;SDS011;43102;52.014;-0.680;2023-07-20T03:06:00;4.20;;;3.10;;
57249;SDS011;43102;52.014;-0.680;2023-07-20T03:07:00;4.20;;;3.10;;
57249;SDS011;43102;52.014;-0.680;2023-07-20T03:08:02;4.20;;;3.10;;
57249;SDS011;43102;52.014;-0.680;2023-07-20T03:09:00;4.20;;;3.10;;
57249;SDS011;43102;52.014;-0.680;2023-07-20T03:10:00;4.20;;;3.10;;
57249;SDS011;43102;52.014;-0.680;2023-07-20T03:11:00;4.20;;;3.10;;
57249;SDS011;43102;52.014;-0.680;2023-07-20T03:12:01;4.20;;;3.10;;
57249;SDS011;43102;52.014;-0.680;2023-07-20T03:13:00;4.20;;;3.10;;
57249;SDS011;43102;52.014;-0.680;2023-07-20T03:14:00;4.20;;;3.10;;
57249;SDS011;43102;52.014;-0.680;2023-07-20T03:15:01;4.20;;;3.10;;
57249;SDS011;43102;52.014;-0.680;2023-07-20T03:16:00;4.20;;;3.10;;
57249;SDS011;43102;52.014;-0.680;2023-07-20T03:17:00;4.20;;;3.10;;
57249;SDS011;43102;52.014;-0.680;2023-07-20T03:18:00;4.20;;;3.10;;
57249;SDS011;43102;52.014;-0.680;2023-07-20T03:19:00;4.20;;;3.10;;
57249;SDS011;43102;52.014;-0.680;2023-07-20T03:20:01;4.20;;;3.10;;
57249;SDS011;43102;52.014;-0.680;2023-07-20T03:21:00;4.20;;;3.10;;
57249;SDS011;43102;52.014;-0.680;2023-07-20T03:22:00;4.20;;;3.10;;
57249;SDS011;43102;52.014;-0.680;2023-07-20T03:23:00;4.20;;;3.10;;
57249;SDS011;43102;52.014;-0.680;2023-07-20T03:24:00;4.20;;;3.10;;
57249;SDS011;43102;52.014;-0.680;2023-07-20T03:25:00;4.20;;;3.10;;
57249;SDS011;43102;52.014;-0.680;2023-07-20T03:26:00;4.20;;;3.10;;
57249;SDS011;43102;52.014;-0.680;2023-07-20T03:27:00;4.20;;;3.10;;
57249;SDS011;43102;52.014;-0.680;2023-07-20T03:28:00;4.20;;;3.10;;
57249;SDS011;43102;52.014;-0.680;2023-07-20T03:29:01;4.20;;;3.10;;
57249;SDS011;43102;52.014;-0.680;2023-07-20T03:30:00;4.20;;;3.10;;
57249;SDS011;43102;52.014;-0.680;2023-07-20T03:31:00;4.20;;;3.10;;
57249;SDS011;43102;52.014;-0.680;2023-07-20T03:32:00;4.20;;;3.10;;
57249;SDS011;43102;52.014;-0.680;2023-07-20T03:33:00;3.50;;;3.20;;
57249;SDS011;43102;52.014;-0.680;2023-07-20T03:34:00;3.50;;;3.20;;
57249;SDS011;43102;52.014;-0.680;2023-07-20T03:35:00;3.50;;;3.20;;
57249;SDS011;43102;52.014;-0.680;2023-07-20T03:36:00;3.50;;;3.20;;
57249;SDS011;43102;52.014;-0.680;2023-07-20T03:37:00;3.50;;;3.20;;
57249;SDS011;43102;52.014;-0.680;2023-07-20T03:38:00;3.50;;;3.20;;
57249;SDS011;43102;52.014;-0.680;2023-07-20T03:39:00;3.50;;;3.20;;
57249;SDS011;43102;52.014;-0.680;2023-07-20T03:40:00;3.50;;;3.20;;
57249;SDS011;43102;52.014;-0.680;2023-07-20T03:41:00;3.50;;;3.20;;
57249;SDS011;43102;52.014;-0.680;2023-07-20T03:42:00;3.50;;;3.20;;
57249;SDS011;43102;52.014;-0.680;2023-07-20T03:43:00;3.50;;;3.20;;
57249;SDS011;43102;52.014;-0.680;2023-07-20T03:44:00;3.50;;;3.20;;
57249;SDS011;43102;52.014;-0.680;2023-07-20T03:45:00;3.50;;;3.20;;
57249;SDS011;43102;52.014;-0.680;2023-07-20T03:46:00;3.50;;;3.20;;
57249;SDS011;43102;52.014;-0.680;2023-07-20T03:47:00;3.50;;;3.20;;
57249;SDS011;43102;52.014;-0.680;2023-07-20T03:48:00;3.50;;;3.20;;
57249;SDS011;43102;52.014;-0.680;2023-07-20T03:49:00;3.50;;;3.20;;
57249;SDS011;43102;52.014;-0.680;2023-07-20T03:50:00;3.50;;;3.20;;
57249;SDS011;43102;52.014;-0.680;2023-07-20T03:51:00;3.50;;;3.20;;
57249;SDS011;43102;52.014;-0.680;2023-07-20T03:52:03;3.50;;;3.20;;
57249;SDS011;43102;52.014;-0.680;2023-07-20T03:53:00;3.50;;;3.20;;
57249;SDS011;43102;52.014;-0.680;2023-07-20T03:54:00;3.50;;;3.20;;
57249;SDS011;43102;52.014;-0.680;2023-07-20T03:55:00;3.50;;;3.20;;
57249;SDS011;43102;52.014;-0.680;2023-07-20T03:56:00;3.50;;;3.20;;
57249;SDS011;43102;52.014;-0.680;2023-07-20T03:57:00;3.50;;;3.20;;
57249;SDS011;43102;52.014;-0.680;2023-07-20T03:58:01;3.50;;;3.20;;
57249;SDS011;43102;52.014;-0.680;2023-07-20T03:59:00;3.50;;;3.20;;
57249;SDS011;43102;52.014;-0.680;2023-07-20T04:00:00;3.50;;;3.20;;
57249;SDS011;43102;52.014;-0.680;2023-07-20T04:01:00;3.50;;;3.20;;
57249;SDS011;43102;52.014;-0.680;2023-07-20T04:02:00;3.50;;;3.20;;
57249;SDS011;43102;52.014;-0.680;2023-07-20T04:03:00;3.80;;;3.10;;
57249;SDS011;43102;52.014;-0.680;2023-07-20T04:04:01;3.80;;;3.10;;
57249;SDS011;43102;52.014;-0.680;2023-07-20T04:05:00;3.80;;;3.10;;
57249;SDS011;43102;52.014;-0.680;2023-07-20T04:06:00;3.80;;;3.10;;
57249;SDS011;43102;52.014;-0.680;2023-07-20T04:07:00;3.80;;;3.10;;
57249;SDS011;43102;52.014;-0.680;2023-07-20T04:08:00;3.80;;;3.10;;
57249;SDS011;43102;52.014;-0.680;2023-07-20T04:09:00;3.80;;;3.10;;
57249;SDS011;43102;52.014;-0.680;2023-07-20T04:10:00;3.80;;;3.10;;
57249;SDS011;43102;52.014;-0.680;2023-07-20T04:11:02;3.80;;;3.10;;
57249;SDS011;43102;52.014;-0.680;2023-07-20T04:12:00;3.80;;;3.10;;
57249;SDS011;43102;52.014;-0.680;2023-07-20T04:13:01;3.80;;;3.10;;
57249;SDS011;43102;52.014;-0.680;2023-07-20T04:14:00;3.80;;;3.10;;
57249;SDS011;43102;52.014;-0.680;2023-07-20T04:15:00;3.80;;;3.10;;
57249;SDS011;43102;52.014;-0.680;2023-07-20T04:16:00;3.80;;;3.10;;
57249;SDS011;43102;52.014;-0.680;2023-07-20T04:17:00;3.80;;;3.10;;
57249;SDS011;43102;52.014;-0.680;2023-07-20T04:18:00;3.80;;;3.10;;
57249;SDS011;43102;52.014;-0.680;2023-07-20T04:19:00;3.80;;;3.10;;
57249;SDS011;43102;52.014;-0.680;2023-07-20T04:20:01;3.80;;;3.10;;
57249;SDS011;43102;52.014;-0.680;2023-07-20T04:21:00;3.80;;;3.10;;
57249;SDS011;43102;52.014;-0.680;2023-07-20T04:22:00;3.80;;;3.10;;
57249;SDS011;43102;52.014;-0.680;2023-07-20T04:23:00;3.80;;;3.10;;
57249;SDS011;43102;52.014;-0.680;2023-07-20T04:24:00;3.80;;;3.10;;
57249;SDS011;43102;52.014;-0.680;2023-07-20T04:25:00;3.80;;;3.10;;
57249;SDS011;43102;52.014;-0.680;2023-07-20T04:26:00;3.80;;;3.10;;
57249;SDS011;43102;52.014;-0.680;2023-07-20T04:27:00;3.80;;;3.10;;
57249;SDS011;43102;52.014;-0.680;2023-07-20T04:28:00;3.80;;;3.10;;
57249;SDS011;43102;52.014;-0.680;2023-07-20T04:29:01;3.80;;;3.10;;
57249;SDS011;43102;52.014;-0.680;2023-07-20T04:30:00;3.80;;;3.10;;
57249;SDS011;43102;52.014;-0.680;2023-07-20T04:31:16;3.80;;;3.10;;
57249;SDS011;43102;52.014;-0.680;2023-07-20T04:32:00;3.80;;;3.10;;
57249;SDS011;43102;52.014;-0.680;2023-07-20T04:33:00;4.90;;;3.20;;
57249;SDS011;43102;52.014;-0.680;2023-07-20T04:34:01;4.90;;;3.20;;
57249;SDS011;43102;52.014;-0.680;2023-07-20T04:35:00;4.90;;;3.20;;
57249;SDS011;43102;52.014;-0.680;2023-07-20T04:36:00;4.90;;;3.20;;
57249;SDS011;43102;52.014;-0.680;2023-07-20T04:37:00;4.90;;;3.20;;
57249;SDS011;43102;52.014;-0.680;2023-07-20T04:38:00;4.90;;;3.20;;
57249;SDS011;43102;52.014;-0.680;2023-07-20T04:39:00;4.90;;;3.20;;
57249;SDS011;43102;52.014;-0.680;2023-07-20T04:40:00;4.90;;;3.20;;
57249;SDS011;43102;52.014;-0.680;2023-07-20T04:41:00;4.90;;;3.20;;
57249;SDS011;43102;52.014;-0.680;2023-07-20T04:42:00;4.90;;;3.20;;
57249;SDS011;43102;52.014;-0.680;2023-07-20T04:43:00;4.90;;;3.20;;
57249;SDS011;43102;52.014;-0.680;2023-07-20T04:44:00;4.90;;;3.20;;
57249;SDS011;43102;52.014;-0.680;2023-07-20T04:45:00;4.90;;;3.20;;
57249;SDS011;43102;52.014;-0.680;2023-07-20T04:46:00;4.90;;;3.20;;
57249;SDS011;43102;52.014;-0.680;2023-07-20T04:47:00;4.90;;;3.20;;
57249;SDS011;43102;52.014;-0.680;2023-07-20T04:48:00;4.90;;;3.20;;
57249;SDS011;43102;52.014;-0.680;2023-07-20T04:49:01;4.90;;;3.20;;
57249;SDS011;43102;52.014;-0.680;2023-07-20T04:50:00;4.90;;;3.20;;
57249;SDS011;43102;52.014;-0.680;2023-07-20T04:51:00;4.90;;;3.20;;
57249;SDS011;43102;52.014;-0.680;2023-07-20T04:52:02;4.90;;;3.20;;
57249;SDS011;43102;52.014;-0.680;2023-07-20T04:53:01;4.90;;;3.20;;
57249;SDS011;43102;52.014;-0.680;2023-07-20T04:54:00;4.90;;;3.20;;
57249;SDS011;43102;52.014;-0.680;2023-07-20T04:55:00;4.90;;;3.20;;
57249;SDS011;43102;52.014;-0.680;2023-07-20T04:56:00;4.90;;;3.20;;
57249;SDS011;43102;52.014;-0.680;2023-07-20T04:57:01;4.90;;;3.20;;
57249;SDS011;43102;52.014;-0.680;2023-07-20T04:58:01;4.90;;;3.20;;
57249;SDS011;43102;52.014;-0.680;2023-07-20T04:59:00;4.90;;;3.20;;
57249;SDS011;43102;52.014;-0.680;2023-07-20T05:00:00;4.90;;;3.20;;
57249;SDS011;43102;52.014;-0.680;2023-07-20T05:01:00;4.90;;;3.20;;
57249;SDS011;43102;52.014;-0.680;2023-07-20T05:02:00;4.90;;;3.20;;
57249;SDS011;43102;52.014;-0.680;2023-07-20T05:03:01;4.90;;;3.90;;
57249;SDS011;43102;52.014;-0.680;2023-07-20T05:04:01;4.90;;;3.90;;
57249;SDS011;43102;52.014;-0.680;2023-07-20T05:05:01;4.90;;;3.90;;
57249;SDS011;43102;52.014;-0.680;2023-07-20T05:06:00;4.90;;;3.90;;
57249;SDS011;43102;52.014;-0.680;2023-07-20T05:07:00;4.90;;;3.90;;
57249;SDS011;43102;52.014;-0.680;2023-07-20T05:08:00;4.90;;;3.90;;
57249;SDS011;43102;52.014;-0.680;2023-07-20T05:09:00;4.90;;;3.90;;
57249;SDS011;43102;52.014;-0.680;2023-07-20T05:10:00;4.90;;;3.90;;
57249;SDS011;43102;52.014;-0.680;2023-07-20T05:11:00;4.90;;;3.90;;
57249;SDS011;43102;52.014;-0.680;2023-07-20T05:12:01;4.90;;;3.90;;
57249;SDS011;43102;52.014;-0.680;2023-07-20T05:13:00;4.90;;;3.90;;
57249;SDS011;43102;52.014;-0.680;2023-07-20T05:14:00;4.90;;;3.90;;
57249;SDS011;43102;52.014;-0.680;2023-07-20T05:15:00;4.90;;;3.90;;
57249;SDS011;43102;52.014;-0.680;2023-07-20T05:16:00;4.90;;;3.90;;
57249;SDS011;43102;52.014;-0.680;2023-07-20T05:17:00;4.90;;;3.90;;
57249;SDS011;43102;52.014;-0.680;2023-07-20T05:18:01;4.90;;;3.90;;
57249;SDS011;43102;52.014;-0.680;2023-07-20T05:19:00;4.90;;;3.90;;
57249;SDS011;43102;52.014;-0.680;2023-07-20T05:20:00;4.90;;;3.90;;
57249;SDS011;43102;52.014;-0.680;2023-07-20T05:21:00;4.90;;;3.90;;
57249;SDS011;43102;52.014;-0.680;2023-07-20T05:22:00;4.90;;;3.90;;
57249;SDS011;43102;52.014;-0.680;2023-07-20T05:23:01;4.90;;;3.90;;
57249;SDS011;43102;52.014;-0.680;2023-07-20T05:24:00;4.90;;;3.90;;
57249;SDS011;43102;52.014;-0.680;2023-07-20T05:25:00;4.90;;;3.90;;
57249;SDS011;43102;52.014;-0.680;2023-07-20T05:26:00;4.90;;;3.90;;
57249;SDS011;43102;52.014;-0.680;2023-07-20T05:27:00;4.90;;;3.90;;
57249;SDS011;43102;52.014;-0.680;2023-07-20T05:28:00;4.90;;;3.90;;
57249;SDS011;43102;52.014;-0.680;2023-07-20T05:29:00;4.90;;;3.90;;
57249;SDS011;43102;52.014;-0.680;2023-07-20T05:30:00;4.90;;;3.90;;
57249;SDS011;43102;52.014;-0.680;2023-07-20T05:31:02;4.90;;;3.90;;
57249;SDS011;43102;52.014;-0.680;2023-07-20T05:32:00;4.90;;;3.90;;
57249;SDS011;43102;52.014;-0.680;2023-07-20T05:33:00;5.60;;;4.30;;
57249;SDS011;43102;52.014;-0.680;2023-07-20T05:34:00;5.60;;;4.30;;
57249;SDS011;43102;52.014;-0.680;2023-07-20T05:35:00;5.60;;;4.30;;
57249;SDS011;43102;52.014;-0.680;2023-07-20T05:36:00;5.60;;;4.30;;
57249;SDS011;43102;52.014;-0.680;2023-07-20T05:37:00;5.60;;;4.30;;
57249;SDS011;43102;52.014;-0.680;2023-07-20T05:38:00;5.60;;;4.30;;
57249;SDS011;43102;52.014;-0.680;2023-07-20T05:39:00;5.60;;;4.30;;
57249;SDS011;43102;52.014;-0.680;2023-07-20T05:40:00;5.60;;;4.30;;
57249;SDS011;43102;52.014;-0.680;2023-07-20T05:41:01;5.60;;;4.30;;
57249;SDS011;43102;52.014;-0.680;2023-07-20T05:42:00;5.60;;;4.30;;
57249;SDS011;43102;52.014;-0.680;2023-07-20T05:43:00;5.60;;;4.30;;
57249;SDS011;43102;52.014;-0.680;2023-07-20T05:44:00;5.60;;;4.30;;
57249;SDS011;43102;52.014;-0.680;2023-07-20T05:45:00;5.60;;;4.30;;
57249;SDS011;43102;52.014;-0.680;2023-07-20T05:46:00;5.60;;;4.30;;
57249;SDS011;43102;52.014;-0.680;2023-07-20T05:47:02;5.60;;;4.30;;
57249;SDS011;43102;52.014;-0.680;2023-07-20T05:48:00;5.60;;;4.30;;
57249;SDS011;43102;52.014;-0.680;2023-07-20T05:49:01;5.60;;;4.30;;
57249;SDS011;43102;52.014;-0.680;2023-07-20T05:50:00;5.60;;;4.30;;
57249;SDS011;43102;52.014;-0.680;2023-07-20T05:51:00;5.60;;;4.30;;
57249;SDS011;43102;52.014;-0.680;2023-07-20T05:52:01;5.60;;;4.30;;
57249;SDS011;43102;52.014;-0.680;2023-07-20T05:53:00;5.60;;;4.30;;
57249;SDS011;43102;52.014;-0.680;2023-07-20T05:54:00;5.60;;;4.30;;
57249;SDS011;43102;52.014;-0.680;2023-07-20T05:55:00;5.60;;;4.30;;
57249;SDS011;43102;52.014;-0.680;2023-07-20T05:56:00;5.60;;;4.30;;
57249;SDS011;43102;52.014;-0.680;2023-07-20T05:57:00;5.60;;;4.30;;
57249;SDS011;43102;52.014;-0.680;2023-07-20T05:58:00;5.60;;;4.30;;
57249;SDS011;43102;52.014;-0.680;2023-07-20T05:59:00;5.60;;;4.30;;